.
WxDataArchive / Data Records for 2011-09-21
2011-09-20 September 2011 2011-09-22

Data Records for Wednesday, 21 September 2011

Time	Temp	Chill	HIndex	Humid	Dewpt	 Wind 	HiWind	WindDir	Rain 	Barom 
-----	----	-----	------	-----	-----	------	------	-------	-----	----- 
00:00	60.2	60.2	60.2	89	56.9	0	0	---	0.00	30.021 
00:05	60.2	60.2	60.2	89	56.9	0	0	---	0.00	30.021 
00:10	60.2	60.2	60.2	89	56.9	0	0	---	0.00	30.021 
00:15	60.2	60.2	60.2	89	56.9	0	0	---	0.00	30.014 
00:20	60.2	60.2	60.2	89	56.9	0	0	---	0.00	30.014 
00:25	60.1	60.1	60.1	89	56.8	0	0	---	0.00	30.014 
00:30	60.1	60.1	60.1	89	56.8	0	0	---	0.00	30.013 
00:35	59.8	59.8	59.8	89	56.5	0	0	---	0.00	30.013 
00:40	59.6	59.6	59.6	89	56.4	0	0	---	0.00	30.013 
00:45	59.5	59.5	59.5	89	56.3	0	0	---	0.00	30.013 
00:50	59.3	59.3	59.3	90	56.4	0	0	---	0.00	30.013 
00:55	59.2	59.2	59.2	90	56.3	0	0	---	0.00	30.013 
01:00	58.9	58.9	58.9	90	56.0	0	0	---	0.00	30.015 
01:05	58.7	58.7	58.7	90	55.8	0	0	---	0.00	30.015 
01:10	58.6	58.6	58.6	90	55.7	0	0	---	0.00	30.015 
01:15	58.4	58.4	58.4	90	55.5	0	0	---	0.00	30.013 
01:20	58.3	58.3	58.3	91	55.7	0	0	---	0.00	30.013 
01:25	58.1	58.1	58.1	91	55.5	0	0	---	0.00	30.013 
01:30	58.1	58.1	58.1	91	55.5	0	0	---	0.00	30.013 
01:35	58.0	58.0	58.0	92	55.7	0	0	---	0.00	30.013 
01:40	57.8	57.8	57.8	92	55.5	0	0	---	0.00	30.013 
01:45	57.6	57.6	57.6	92	55.3	0	0	---	0.00	30.009 
01:50	57.6	57.6	57.6	92	55.3	0	0	---	0.00	30.009 
01:55	57.5	57.5	57.5	92	55.2	0	0	---	0.00	30.009 
02:00	57.5	57.5	57.5	92	55.2	0	0	---	0.00	30.007 
02:05	57.5	57.5	57.5	92	55.2	0	0	---	0.00	30.007 
02:10	57.5	57.5	57.5	92	55.2	0	0	---	0.00	30.007 
02:15	57.3	57.3	57.3	92	55.0	0	0	---	0.00	30.003 
02:20	57.3	57.3	57.3	93	55.3	0	0	---	0.00	30.003 
02:25	57.3	57.3	57.3	93	55.3	0	0	---	0.00	30.003 
02:30	57.3	57.3	57.3	93	55.3	0	0	---	0.00	30.001 
02:35	57.3	57.3	57.3	93	55.3	0	0	---	0.00	30.001 
02:40	57.3	57.3	57.3	93	55.3	0	0	---	0.00	30.001 
02:45	57.5	57.5	57.5	93	55.5	0	0	---	0.00	29.997 
02:50	57.6	57.6	57.6	94	55.9	0	0	---	0.00	29.997 
02:55	57.6	57.6	57.6	94	55.9	0	0	---	0.00	29.997 
03:00	57.8	57.8	57.8	94	56.1	0	0	---	0.00	29.997 
03:05	58.0	58.0	58.0	94	56.3	0	0	---	0.00	29.997 
03:10	58.1	58.1	58.1	94	56.4	0	0	---	0.00	29.997 
03:15	58.3	58.3	58.3	94	56.6	0	0	---	0.00	29.993 
03:20	58.3	58.3	58.3	94	56.6	0	0	---	0.00	29.993 
03:25	58.3	58.3	58.3	94	56.6	0	0	---	0.00	29.993 
03:30	58.3	58.3	58.3	94	56.6	0	0	---	0.00	29.991 
03:35	58.1	58.1	58.1	94	56.4	0	0	---	0.00	29.991 
03:40	58.1	58.1	58.1	94	56.4	0	0	---	0.00	29.991 
03:45	58.1	58.1	58.1	94	56.4	0	0	---	0.00	29.982 
03:50	58.1	58.1	58.1	95	56.7	0	0	---	0.00	29.982 
03:55	58.1	58.1	58.1	95	56.7	0	0	---	0.00	29.982 
04:00	58.1	58.1	58.1	95	56.7	0	1	112	0.00	29.979 
04:05	58.1	58.1	58.1	95	56.7	0	0	---	0.00	29.979 
04:10	58.1	58.1	58.1	95	56.7	0	0	---	0.00	29.979 
04:15	58.3	58.3	58.3	95	56.9	0	0	---	0.00	29.979 
04:20	58.4	58.4	58.4	95	57.0	0	0	---	0.00	29.979 
04:25	58.6	58.6	58.6	95	57.2	0	0	---	0.00	29.979 
04:30	58.6	58.6	58.6	95	57.2	0	0	---	0.00	29.979 
04:35	58.6	58.6	58.6	95	57.2	0	0	---	0.00	29.979 
04:40	58.6	58.6	58.6	95	57.2	0	0	---	0.00	29.979 
04:45	58.4	58.4	58.4	95	57.0	0	0	---	0.00	29.978 
04:50	58.3	58.3	58.3	95	56.9	0	0	---	0.00	29.978 
04:55	58.1	58.1	58.1	95	56.7	0	0	---	0.00	29.978 
05:00	58.0	58.0	58.0	95	56.6	0	0	---	0.00	29.979 
05:05	57.8	57.8	57.8	95	56.4	0	0	---	0.00	29.979 
05:10	57.6	57.6	57.6	95	56.2	0	0	---	0.00	29.979 
05:15	57.5	57.5	57.5	95	56.1	0	0	---	0.00	29.979 
05:20	57.3	57.3	57.3	95	55.9	0	0	---	0.00	29.979 
05:25	57.3	57.3	57.3	95	55.9	0	0	---	0.00	29.979 
05:30	57.3	57.3	57.3	95	55.9	0	0	---	0.00	29.978 
05:35	57.5	57.5	57.5	95	56.1	0	0	---	0.00	29.978 
05:40	57.5	57.5	57.5	96	56.4	0	0	---	0.00	29.978 
05:45	57.6	57.6	57.6	96	56.5	0	0	---	0.00	29.977 
05:50	57.8	57.8	57.8	95	56.4	0	0	---	0.00	29.977 
05:55	57.8	57.8	57.8	96	56.7	0	0	---	0.00	29.977 
06:00	57.6	57.6	57.6	96	56.5	0	0	---	0.00	29.978 
06:05	57.6	57.6	57.6	96	56.5	0	0	---	0.00	29.978 
06:10	57.8	57.8	57.8	96	56.7	0	0	---	0.00	29.978 
06:15	58.3	58.3	58.3	96	57.2	0	0	---	0.00	29.974 
06:20	58.7	58.7	58.7	96	57.6	0	0	---	0.00	29.974 
06:25	59.0	59.0	59.0	96	57.9	0	0	---	0.00	29.974 
06:30	59.3	59.3	59.3	96	58.2	0	0	---	0.00	29.978 
06:35	59.5	59.5	59.5	96	58.4	0	0	---	0.00	29.978 
06:40	59.6	59.6	59.6	96	58.5	0	0	---	0.00	29.978 
06:45	59.8	59.8	59.8	96	58.7	0	0	---	0.00	29.978 
06:50	59.9	59.9	59.9	96	58.8	0	0	---	0.00	29.978 
06:55	59.9	59.9	59.9	96	58.8	0	0	---	0.00	29.978 
07:00	60.1	60.1	60.1	96	59.0	0	0	---	0.00	29.976 
07:05	60.1	60.1	60.1	96	59.0	0	0	---	0.00	29.976 
07:10	60.2	60.2	60.2	96	59.1	0	0	---	0.00	29.976 
07:15	60.1	60.1	60.1	96	59.0	0	0	---	0.00	29.974 
07:20	60.1	60.1	60.1	96	59.0	0	0	---	0.00	29.974 
07:25	60.1	60.1	60.1	96	59.0	0	0	---	0.00	29.974 
07:30	60.1	60.1	60.1	96	59.0	0	0	---	0.00	29.972 
07:35	60.2	60.2	60.2	96	59.1	0	0	---	0.00	29.972 
07:40	60.2	60.2	60.2	96	59.1	0	0	---	0.00	29.972 
07:45	60.1	60.1	60.1	96	59.0	0	0	---	0.00	29.969 
07:50	60.1	60.1	60.1	96	59.0	0	0	---	0.00	29.969 
07:55	60.1	60.1	60.1	96	59.0	0	0	---	0.00	29.969 
08:00	60.1	60.1	60.1	96	59.0	0	0	---	0.00	29.966 
08:05	60.1	60.1	60.1	96	59.0	0	0	---	0.00	29.966 
08:10	60.1	60.1	60.1	96	59.0	0	0	---	0.00	29.966 
08:15	60.2	60.2	60.2	96	59.1	0	0	---	0.00	29.979 
08:20	60.4	60.4	60.4	96	59.3	0	0	---	0.00	29.979 
08:25	60.9	60.9	60.9	96	59.7	0	0	---	0.00	29.979 
08:30	61.2	61.2	61.2	96	60.0	0	1	112	0.00	29.981 
08:35	61.5	61.5	61.5	96	60.3	0	0	---	0.00	29.981 
08:40	61.8	61.8	61.8	96	60.6	0	0	---	0.00	29.981 
08:45	62.1	62.1	62.1	96	60.9	0	1	112	0.00	29.976 
08:50	62.3	62.3	62.3	96	61.1	0	1	112	0.00	29.976 
08:55	62.6	62.6	62.6	96	61.4	0	1	112	0.00	29.976 
09:00	62.7	62.7	62.7	96	61.5	0	2	112	0.00	29.973 
09:05	62.9	62.9	62.9	96	61.7	0	0	---	0.00	29.973 
09:10	63.2	63.2	63.2	96	62.0	0	0	---	0.00	29.973 
09:15	63.5	63.5	63.5	96	62.3	0	2	112	0.00	29.973 
09:20	63.9	63.9	63.9	96	62.7	0	1	112	0.00	29.973 
09:25	64.0	64.0	64.0	96	62.8	0	0	---	0.00	29.973 
09:30	64.2	64.2	64.2	96	63.0	0	1	112	0.00	29.975 
09:35	64.2	64.2	64.2	96	63.0	0	0	---	0.00	29.975 
09:40	64.3	64.3	64.3	96	63.1	0	0	---	0.00	29.975 
09:45	64.3	64.3	64.3	96	63.1	0	1	112	0.00	29.973 
09:50	64.7	64.7	64.7	96	63.5	0	1	112	0.00	29.973 
09:55	64.8	64.8	64.8	96	63.6	0	1	112	0.00	29.973 
10:00	65.3	65.3	65.3	96	64.1	0	1	112	0.00	29.965 
10:05	65.8	65.8	65.8	96	64.6	0	1	112	0.00	29.965 
10:10	66.1	66.1	66.1	96	64.9	0	3	112	0.00	29.965 
10:15	66.3	66.3	66.3	96	65.1	0	2	112	0.00	29.972 
10:20	66.4	66.4	66.4	96	65.2	0	2	112	0.00	29.972 
10:25	66.8	66.8	66.8	95	65.3	0	2	112	0.00	29.972 
10:30	67.1	67.1	67.1	94	65.3	1	6	112	0.00	29.975 
10:35	67.1	67.1	67.1	94	65.3	0	2	338	0.00	29.975 
10:40	67.8	67.8	67.8	94	66.0	0	3	225	0.00	29.975 
10:45	68.4	68.4	68.4	92	66.0	0	4	248	0.00	29.974 
10:50	68.8	68.8	68.8	89	65.4	1	4	315	0.00	29.974 
10:55	69.3	69.3	69.3	87	65.3	0	2	248	0.00	29.974 
11:00	69.9	69.9	69.9	86	65.5	1	3	292	0.00	29.969 
11:05	70.3	70.3	70.3	82	64.5	2	5	270	0.00	29.969 
11:10	70.8	70.8	70.8	81	64.7	1	5	270	0.00	29.969 
11:15	70.9	70.9	70.9	79	64.1	1	3	270	0.00	29.963 
11:20	71.1	71.1	71.1	77	63.5	1	4	270	0.00	29.963 
11:25	71.5	71.5	71.5	77	63.9	1	3	270	0.00	29.963 
11:30	71.8	71.8	71.8	74	63.1	2	4	270	0.00	29.961 
11:35	72.0	72.0	72.0	74	63.2	1	3	270	0.00	29.961 
11:40	72.0	72.0	72.0	74	63.2	1	2	270	0.00	29.961 
11:45	71.8	71.8	71.8	73	62.7	1	4	270	0.00	29.962 
11:50	71.1	71.1	71.1	73	62.0	2	6	270	0.00	29.962 
11:55	70.9	70.9	70.9	72	61.4	2	5	248	0.00	29.962 
12:00	71.5	71.5	71.5	73	62.4	2	4	248	0.00	29.964 
12:05	72.1	72.1	72.1	70	61.8	1	3	248	0.00	29.964 
12:10	73.2	73.2	73.2	68	62.0	1	4	112	0.00	29.964 
12:15	73.5	73.5	73.5	63	60.1	2	6	270	0.00	29.962 
12:20	73.9	73.9	73.9	63	60.5	1	3	270	0.00	29.962 
12:25	74.4	74.4	74.4	62	60.5	1	4	270	0.00	29.962 
12:30	73.5	73.5	73.5	62	59.7	3	5	270	0.00	29.961 
12:35	73.0	73.0	73.0	64	60.1	1	4	270	0.00	29.961 
12:40	73.5	73.5	73.5	65	61.0	1	3	270	0.00	29.961 
12:45	74.2	74.2	74.2	62	60.3	2	4	270	0.00	29.954 
12:50	74.6	74.6	74.6	62	60.7	1	3	270	0.00	29.954 
12:55	75.1	75.1	77.4	60	60.2	2	4	270	0.00	29.954 
13:00	74.7	74.7	74.7	59	59.4	3	6	270	0.00	29.954 
13:05	74.9	74.9	74.9	59	59.6	1	3	270	0.00	29.954 
13:10	74.7	74.7	74.7	58	58.9	2	5	270	0.00	29.954 
13:15	75.1	75.1	77.5	58	59.3	1	4	270	0.00	29.953 
13:20	75.4	75.4	77.6	59	60.1	2	4	292	0.00	29.953 
13:25	75.8	75.8	77.9	56	59.0	2	4	270	0.00	29.953 
13:30	75.8	75.8	77.9	56	59.0	1	3	292	0.00	29.945 
13:35	75.8	75.8	78.0	55	58.5	2	4	270	0.00	29.945 
13:40	76.1	76.1	78.1	54	58.2	1	3	270	0.00	29.945 
13:45	76.5	76.5	78.4	55	59.1	1	3	248	0.00	29.945 
13:50	76.8	76.8	78.5	52	57.8	2	5	270	0.00	29.945 
13:55	76.8	76.8	78.6	54	58.9	2	5	270	0.00	29.945 
14:00	76.8	76.8	78.5	50	56.7	2	9	270	0.00	29.943 
14:05	77.2	77.2	78.8	52	58.2	1	4	270	0.00	29.943 
14:10	77.4	77.4	78.9	53	58.9	1	5	248	0.00	29.943 
14:15	77.7	77.7	78.9	48	56.4	1	6	270	0.00	29.932 
14:20	77.6	77.6	78.9	49	56.9	2	6	270	0.00	29.932 
14:25	77.4	77.4	78.8	48	56.1	3	6	270	0.00	29.932 
14:30	77.2	77.2	78.7	50	57.1	2	6	292	0.00	29.935 
14:35	76.7	76.7	78.4	51	57.2	2	6	270	0.00	29.935 
14:40	76.5	76.5	78.3	50	56.5	2	5	248	0.00	29.935 
14:45	76.5	76.5	78.3	50	56.5	2	5	270	0.00	29.931 
14:50	76.3	76.3	78.2	51	56.8	1	3	248	0.00	29.931 
14:55	76.3	76.3	78.2	53	57.9	1	4	248	0.00	29.931 
15:00	76.5	76.5	78.3	50	56.5	1	6	270	0.00	29.927 
15:05	76.8	76.8	78.5	50	56.7	1	4	270	0.00	29.927 
15:10	77.2	77.2	78.7	48	56.0	2	5	270	0.00	29.927 
15:15	77.2	77.2	78.7	48	56.0	2	6	270	0.00	29.927 
15:20	77.2	77.2	78.7	48	56.0	2	5	270	0.00	29.927 
15:25	77.4	77.4	78.8	48	56.1	1	3	292	0.00	29.927 
15:30	77.9	77.9	79.2	50	57.7	0	4	270	0.00	29.918 
15:35	78.5	78.5	79.5	48	57.2	1	6	270	0.00	29.918 
15:40	78.5	78.5	79.4	47	56.6	1	5	270	0.00	29.918 
15:45	78.5	78.5	79.5	49	57.7	1	4	248	0.00	29.923 
15:50	78.5	78.5	79.4	47	56.6	1	3	270	0.00	29.923 
15:55	78.6	78.6	79.4	46	56.1	1	5	270	0.00	29.923 
16:00	78.5	78.5	79.4	47	56.6	1	4	270	0.00	29.919 
16:05	78.1	78.1	79.2	47	56.2	1	4	270	0.00	29.919 
16:10	77.9	77.9	79.1	48	56.6	1	4	292	0.00	29.919 
16:15	77.7	77.7	78.9	48	56.4	2	7	315	0.00	29.917 
16:20	77.6	77.6	78.8	47	55.8	2	6	270	0.00	29.917 
16:25	77.2	77.2	78.7	48	56.0	1	5	292	0.00	29.917 
16:30	77.2	77.2	78.7	49	56.5	1	3	248	0.00	29.916 
16:35	77.4	77.4	78.8	50	57.3	1	2	270	0.00	29.916 
16:40	77.6	77.6	79.0	50	57.5	1	5	248	0.00	29.916 
16:45	77.6	77.6	78.9	48	56.3	1	3	248	0.00	29.917 
16:50	77.4	77.4	78.8	49	56.7	1	3	270	0.00	29.917 
16:55	76.8	76.8	78.5	49	56.2	1	6	248	0.00	29.917 
17:00	76.5	76.5	78.3	50	56.5	1	4	248	0.00	29.919 
17:05	76.5	76.5	78.3	51	57.0	1	4	270	0.00	29.919 
17:10	76.5	76.5	78.3	51	57.0	0	3	270	0.00	29.919 
17:15	76.5	76.5	78.3	51	57.0	1	4	248	0.00	29.919 
17:20	76.5	76.5	78.3	51	57.0	1	4	248	0.00	29.919 
17:25	76.3	76.3	78.2	52	57.4	1	4	270	0.00	29.919 
17:30	76.1	76.1	78.1	52	57.2	2	5	270	0.00	29.922 
17:35	76.0	76.0	78.1	53	57.6	1	5	270	0.00	29.922 
17:40	76.0	76.0	78.1	53	57.6	2	6	270	0.00	29.922 
17:45	75.8	75.8	78.0	54	57.9	2	5	270	0.00	29.925 
17:50	75.8	75.8	78.0	54	57.9	2	4	270	0.00	29.925 
17:55	75.4	75.4	77.7	55	58.1	1	3	270	0.00	29.925 
18:00	75.3	75.3	77.7	56	58.5	2	6	270	0.00	29.928 
18:05	75.3	75.3	77.7	56	58.5	3	5	270	0.00	29.928 
18:10	75.3	75.3	77.6	57	59.0	2	5	270	0.00	29.928 
18:15	75.1	75.1	77.5	57	58.8	1	4	270	0.00	29.928 
18:20	74.7	74.7	74.7	57	58.4	1	5	270	0.00	29.928 
18:25	74.4	74.4	74.4	58	58.6	1	3	270	0.00	29.928 
18:30	74.2	74.2	74.2	59	58.9	0	1	270	0.00	29.929 
18:35	74.0	74.0	74.0	59	58.7	0	2	270	0.00	29.929 
18:40	74.0	74.0	74.0	59	58.7	1	5	270	0.00	29.929 
18:45	74.0	74.0	74.0	58	58.3	1	3	270	0.00	29.932 
18:50	74.0	74.0	74.0	58	58.3	0	2	270	0.00	29.932 
18:55	74.0	74.0	74.0	58	58.3	1	3	270	0.00	29.932 
19:00	73.9	73.9	73.9	58	58.2	1	3	270	0.00	29.933 
19:05	73.7	73.7	73.7	58	58.0	0	3	270	0.00	29.933 
19:10	73.7	73.7	73.7	57	57.5	1	4	270	0.00	29.933 
19:15	73.5	73.5	73.5	57	57.3	0	3	315	0.00	29.937 
19:20	73.3	73.3	73.3	56	56.6	1	4	270	0.00	29.937 
19:25	73.2	73.2	73.2	55	56.0	1	3	270	0.00	29.937 
19:30	73.0	73.0	73.0	55	55.9	1	3	270	0.00	29.945 
19:35	72.8	72.8	72.8	55	55.7	0	2	270	0.00	29.945 
19:40	72.5	72.5	72.5	55	55.4	0	2	270	0.00	29.945 
19:45	72.1	72.1	72.1	56	55.5	0	2	270	0.00	29.946 
19:50	71.8	71.8	71.8	56	55.2	0	1	270	0.00	29.946 
19:55	71.5	71.5	71.5	57	55.5	0	0	---	0.00	29.946 
20:00	70.9	70.9	70.9	58	55.4	0	1	270	0.00	29.948 
20:05	70.4	70.4	70.4	58	54.9	0	1	270	0.00	29.948 
20:10	70.1	70.1	70.1	58	54.6	0	1	270	0.00	29.948 
20:15	69.9	69.9	69.9	57	54.0	0	2	270	0.00	29.956 
20:20	69.8	69.8	69.8	55	52.9	0	1	270	0.00	29.956 
20:25	69.8	69.8	69.8	55	52.9	0	0	---	0.00	29.956 
20:30	69.6	69.6	69.6	55	52.7	0	0	---	0.00	29.963 
20:35	69.4	69.4	69.4	56	53.0	0	0	---	0.00	29.963 
20:40	69.1	69.1	69.1	57	53.2	0	0	---	0.00	29.963 
20:45	68.6	68.6	68.6	57	52.7	0	0	---	0.00	29.965 
20:50	68.1	68.1	68.1	57	52.3	0	0	---	0.00	29.965 
20:55	67.6	67.6	67.6	58	52.3	0	0	---	0.00	29.965 
21:00	67.1	67.1	67.1	59	52.3	0	0	---	0.00	29.976 
21:05	66.9	66.9	66.9	59	52.1	0	0	---	0.00	29.976 
21:10	66.6	66.6	66.6	58	51.4	0	0	---	0.00	29.976 
21:15	66.4	66.4	66.4	58	51.2	0	0	---	0.00	29.979 
21:20	66.3	66.3	66.3	58	51.1	0	0	---	0.00	29.979 
21:25	66.1	66.1	66.1	58	50.9	0	0	---	0.00	29.979 
21:30	66.1	66.1	66.1	56	49.9	0	1	270	0.00	29.983 
21:35	66.1	66.1	66.1	56	49.9	0	0	---	0.00	29.983 
21:40	65.8	65.8	65.8	56	49.7	0	0	---	0.00	29.983 
21:45	65.6	65.6	65.6	55	49.0	0	1	270	0.00	29.989 
21:50	65.5	65.5	65.5	55	48.9	0	0	---	0.00	29.989 
21:55	65.2	65.2	65.2	55	48.6	0	0	---	0.00	29.989 
22:00	64.8	64.8	64.8	56	48.7	0	0	---	0.00	29.992 
22:05	64.5	64.5	64.5	56	48.4	0	0	---	0.00	29.992 
22:10	64.3	64.3	64.3	55	47.8	0	1	270	0.00	29.992 
22:15	64.3	64.3	64.3	55	47.8	0	1	270	0.00	29.993 
22:20	64.2	64.2	64.2	55	47.7	0	1	270	0.00	29.993 
22:25	64.0	64.0	64.0	55	47.5	0	1	270	0.00	29.993 
22:30	63.9	63.9	63.9	54	46.9	0	1	270	0.00	29.997 
22:35	63.7	63.7	63.7	55	47.2	0	1	270	0.00	29.997 
22:40	63.5	63.5	63.5	55	47.0	0	1	270	0.00	29.997 
22:45	63.2	63.2	63.2	56	47.2	0	1	270	0.00	30.005 
22:50	62.9	62.9	62.9	56	47.0	0	0	---	0.00	30.005 
22:55	62.6	62.6	62.6	57	47.1	0	1	270	0.00	30.005 
23:00	62.3	62.3	62.3	58	47.3	0	0	---	0.00	30.007 
23:05	62.0	62.0	62.0	59	47.5	0	0	---	0.00	30.007 
23:10	61.5	61.5	61.5	60	47.5	0	0	---	0.00	30.007 
23:15	61.2	61.2	61.2	60	47.2	0	0	---	0.00	30.008 
23:20	61.0	61.0	61.0	60	47.0	0	1	270	0.00	30.008 
23:25	61.2	61.2	61.2	59	46.8	0	1	270	0.00	30.008 
23:30	61.0	61.0	61.0	59	46.6	0	1	270	0.00	30.010 
23:35	61.0	61.0	61.0	59	46.6	0	0	---	0.00	30.010 
23:40	60.9	60.9	60.9	60	46.9	0	0	---	0.00	30.010 
23:45	60.5	60.5	60.5	60	46.5	0	0	---	0.00	30.012 
23:50	60.4	60.4	60.4	60	46.4	0	0	---	0.00	30.012 
23:55	60.2	60.2	60.2	61	46.7	0	0	---	0.00	30.012 

CoCoRaHS
IN-AL-39
A2 Web Hosting
Creative Commons License
GoDaddy
search engine by freefind advanced

loaded 2018-11-19 18:40:09 • last modified 2010-11-18 10:43:29
Privacy PolicyDisclaimer
• wx.awcolley.com is powered by PmWiki v.2002016 •
• all content (unless otherwise noted) © 2018 A W Colley